Time;durP1;ratioP1;P1;durP2;ratioP2;P2;SDS_P1;SDS_P2;PMS_P1;PMS_P2;Temp;Humidity;BMP_temperature;BMP_pressure;BME280_temperature;BME280_humidity;BME280_pressure;Samples;Min_cycle;Max_cycle;Signal;HPM_P1;HPM_P2
2021/10/13 00:00:12;;;;;;;171.30;21.10;;;7.50;99.90;;;;;;6197216;23;20397;-77
2021/10/13 00:02:40;;;;;;;221.50;38.33;;;7.50;99.90;;;;;;6187438;23;20404;-77
2021/10/13 00:05:10;;;;;;;155.50;32.30;;;7.50;99.90;;;;;;6187407;23;20400;-77
2021/10/13 00:07:39;;;;;;;146.33;27.43;;;7.50;99.90;;;;;;6187141;23;20470;-78
2021/10/13 00:10:08;;;;;;;135.07;23.67;;;7.50;99.90;;;;;;6160663;23;20419;-77
2021/10/13 00:12:36;;;;;;;84.47;23.20;;;7.40;99.90;;;;;;6160485;23;20423;-77
2021/10/13 00:15:07;;;;;;;145.03;29.27;;;7.50;99.90;;;;;;6160616;23;20976;-77
2021/10/13 00:17:35;;;;;;;105.93;21.20;;;7.40;99.90;;;;;;6197230;23;20426;-78
2021/10/13 00:20:04;;;;;;;5.65;4.70;;;7.40;99.90;;;;;;6159451;23;20499;-78
2021/10/13 00:22:32;;;;;;;224.20;38.40;;;7.50;99.90;;;;;;6160872;23;20223;-77
2021/10/13 00:25:02;;;;;;;6.93;5.13;;;7.50;99.90;;;;;;6159875;23;20410;-77
2021/10/13 00:27:32;;;;;;;199.63;35.87;;;7.50;99.90;;;;;;6187220;23;20207;-77
2021/10/13 00:30:00;;;;;;;126.67;20.60;;;7.50;99.90;;;;;;6160765;23;20415;-77
2021/10/13 00:32:28;;;;;;;126.03;21.83;;;7.40;99.90;;;;;;6197163;23;20403;-77
2021/10/13 00:34:57;;;;;;;79.77;19.73;;;7.40;99.90;;;;;;6197205;23;20400;-77
2021/10/13 00:37:25;;;;;;;162.07;26.40;;;7.40;99.90;;;;;;6160687;23;20918;-77
2021/10/13 00:39:53;;;;;;;158.00;24.07;;;7.40;99.90;;;;;;6196512;23;20538;-77
2021/10/13 00:42:23;;;;;;;180.20;25.43;;;7.30;99.90;;;;;;6160397;23;20514;-78
2021/10/13 00:44:51;;;;;;;154.97;25.97;;;7.40;99.90;;;;;;6187104;23;20418;-77
2021/10/13 00:47:19;;;;;;;131.53;21.27;;;7.30;99.90;;;;;;6160369;23;20443;-77
2021/10/13 00:49:48;;;;;;;59.73;17.53;;;7.40;99.90;;;;;;6160336;23;20514;-77
2021/10/13 00:52:17;;;;;;;114.70;24.23;;;7.30;99.90;;;;;;6160179;23;20753;-77
2021/10/13 00:54:47;;;;;;;101.27;20.83;;;7.30;99.90;;;;;;6160293;23;20404;-78
2021/10/13 00:57:15;;;;;;;87.73;20.53;;;7.30;99.90;;;;;;6160075;23;20525;-77
2021/10/13 00:59:45;;;;;;;111.67;20.43;;;7.30;99.90;;;;;;6159933;23;20463;-77
2021/10/13 01:02:17;;;;;;;122.80;29.20;;;7.30;99.90;;;;;;6160932;23;20454;-76
2021/10/13 01:04:58;;;;;;;139.23;26.17;;;7.30;99.90;;;;;;6160324;23;20412;-77
2021/10/13 01:07:36;;;;;;;167.57;36.07;;;7.30;99.90;;;;;;6196651;23;20475;-77
2021/10/13 01:10:12;;;;;;;172.30;31.33;;;7.20;99.90;;;;;;6160055;23;20918;-76
2021/10/13 01:12:53;;;;;;;107.80;24.97;;;7.20;99.90;;;;;;6160043;23;20945;-77
2021/10/13 01:15:30;;;;;;;76.27;28.93;;;7.20;99.90;;;;;;6160053;23;20716;-77
2021/10/13 01:18:06;;;;;;;67.50;19.13;;;7.20;99.90;;;;;;6159959;23;20542;-76
2021/10/13 01:20:47;;;;;;;132.83;32.40;;;7.20;99.90;;;;;;6160083;23;20414;-76
2021/10/13 01:23:52;;;;;;;7.65;6.90;;;7.20;99.90;;;;;;6159278;23;20982;-77
2021/10/13 01:26:29;;;;;;;168.77;25.17;;;7.30;99.90;;;;;;6160241;23;20287;-77
2021/10/13 01:29:03;;;;;;;7.32;6.60;;;7.20;99.90;;;;;;6158777;23;20517;-77
2021/10/13 01:31:38;;;;;;;182.60;37.70;;;7.30;99.90;;;;;;6159561;23;20494;-75
2021/10/13 01:34:10;;;;;;;87.90;26.13;;;7.30;99.90;;;;;;6186675;23;20482;-76
2021/10/13 01:36:41;;;;;;;257.60;34.33;;;7.20;99.90;;;;;;6196673;23;20388;-76
2021/10/13 01:39:11;;;;;;;144.33;26.53;;;7.20;99.90;;;;;;6159426;23;20551;-77
2021/10/13 01:41:45;;;;;;;163.77;34.33;;;7.10;99.90;;;;;;6186573;23;20400;-77
2021/10/13 01:44:19;;;;;;;107.77;25.87;;;7.10;99.90;;;;;;6159822;23;20408;-77
2021/10/13 01:46:47;;;;;;;113.13;24.77;;;7.10;99.90;;;;;;6160897;23;20411;-76
2021/10/13 01:49:17;;;;;;;117.37;37.47;;;7.00;99.90;;;;;;6159799;23;20474;-77
2021/10/13 01:51:47;;;;;;;39.40;17.47;;;7.00;99.90;;;;;;6159747;23;20798;-77
2021/10/13 01:54:16;;;;;;;144.70;33.30;;;7.00;99.90;;;;;;6196471;23;20404;-77
2021/10/13 01:56:46;;;;;;;113.73;26.33;;;7.00;99.90;;;;;;6186274;23;20414;-77
2021/10/13 01:59:23;;;;;;;135.97;27.53;;;6.90;99.90;;;;;;6159976;23;20546;-76
2021/10/13 02:01:53;;;;;;;180.50;30.87;;;6.90;99.90;;;;;;6159809;23;20486;-76
2021/10/13 02:04:22;;;;;;;178.97;25.37;;;6.90;99.90;;;;;;6160097;23;20614;-77
2021/10/13 02:06:52;;;;;;;57.47;22.47;;;6.90;99.90;;;;;;6159671;23;20411;-76
2021/10/13 02:09:26;;;;;;;21.03;14.53;;;6.80;99.90;;;;;;6159231;23;20947;-77
2021/10/13 02:11:56;;;;;;;152.93;26.47;;;6.80;99.90;;;;;;6196731;23;20388;-77
2021/10/13 02:14:27;;;;;;;14.07;12.50;;;6.80;99.90;;;;;;6160441;23;20478;-77
2021/10/13 02:16:59;;;;;;;112.00;31.77;;;6.80;99.90;;;;;;6159508;23;20794;-77
2021/10/13 02:19:30;;;;;;;49.40;14.33;;;6.80;99.90;;;;;;6159269;23;20827;-76
2021/10/13 02:22:00;;;;;;;119.90;27.80;;;6.80;99.90;;;;;;6159056;23;20442;-76
2021/10/13 02:24:32;;;;;;;74.60;26.10;;;6.70;99.90;;;;;;6159588;23;20498;-77
2021/10/13 02:27:05;;;;;;;66.23;16.63;;;6.70;99.90;;;;;;6159597;23;20801;-77
2021/10/13 02:29:35;;;;;;;6.90;6.20;;;6.70;99.90;;;;;;6158667;23;20892;-77
2021/10/13 02:32:03;;;;;;;134.10;30.67;;;6.80;99.90;;;;;;6159534;23;20173;-77
2021/10/13 02:34:32;;;;;;;6.65;6.00;;;6.80;99.90;;;;;;6158953;23;20882;-77
2021/10/13 02:37:00;;;;;;;146.17;23.27;;;6.90;99.90;;;;;;6159323;23;20196;-77
2021/10/13 02:39:28;;;;;;;162.77;26.73;;;6.80;99.90;;;;;;6195608;23;20518;-77
2021/10/13 02:41:56;;;;;;;158.47;29.30;;;6.80;99.90;;;;;;6158961;23;20792;-75
2021/10/13 02:44:25;;;;;;;162.97;24.10;;;6.70;99.90;;;;;;6159302;23;20815;-77
2021/10/13 02:46:56;;;;;;;149.47;26.03;;;6.70;99.90;;;;;;6159341;23;20450;-76
2021/10/13 02:49:37;;;;;;;144.23;28.43;;;6.60;99.90;;;;;;6195852;23;20419;-76
2021/10/13 02:52:14;;;;;;;86.80;20.00;;;6.60;99.90;;;;;;6159340;23;20772;-77
2021/10/13 02:54:49;;;;;;;155.47;30.53;;;6.60;99.90;;;;;;6159449;23;20507;-77
2021/10/13 02:57:19;;;;;;;130.87;28.67;;;6.50;99.90;;;;;;6159249;23;20487;-77
2021/10/13 02:59:52;;;;;;;203.90;33.23;;;6.50;99.90;;;;;;6159050;23;20977;-77
2021/10/13 03:02:26;;;;;;;166.83;26.67;;;6.50;99.90;;;;;;6159135;23;20402;-76
2021/10/13 03:05:00;;;;;;;89.40;23.67;;;6.40;99.90;;;;;;6195916;23;20889;-77
2021/10/13 03:07:31;;;;;;;74.63;17.53;;;6.40;99.90;;;;;;6185924;23;20487;-76
2021/10/13 03:10:01;;;;;;;195.67;23.73;;;6.40;99.90;;;;;;6195618;23;20376;-77
2021/10/13 03:12:36;;;;;;;178.67;26.90;;;6.40;99.90;;;;;;6195636;23;20376;-77
2021/10/13 03:15:06;;;;;;;112.27;25.53;;;6.40;99.90;;;;;;6185471;23;20858;-77
2021/10/13 03:17:37;;;;;;;128.73;30.37;;;6.40;99.90;;;;;;6159541;23;20799;-76
2021/10/13 03:20:06;;;;;;;84.83;15.80;;;6.40;99.90;;;;;;6185461;23;20890;-77
2021/10/13 03:22:38;;;;;;;232.60;29.00;;;6.40;99.90;;;;;;6187426;23;20490;-77
2021/10/13 03:25:08;;;;;;;165.80;23.73;;;6.30;99.90;;;;;;6187929;23;20414;-77
2021/10/13 03:27:37;;;;;;;150.60;23.03;;;6.30;99.90;;;;;;6187706;23;20404;-77
2021/10/13 03:30:06;;;;;;;213.83;32.10;;;6.40;99.90;;;;;;6160727;23;20757;-76
2021/10/13 03:32:36;;;;;;;191.83;31.33;;;6.40;99.90;;;;;;6160999;23;20450;-76
2021/10/13 03:35:04;;;;;;;143.83;30.53;;;6.40;99.90;;;;;;6160875;23;20765;-77
2021/10/13 03:37:32;;;;;;;19.20;12.15;;;6.40;99.90;;;;;;6187253;23;20804;-77
2021/10/13 03:40:01;;;;;;;155.63;29.53;;;6.40;99.90;;;;;;6160632;23;20505;-77
2021/10/13 03:42:29;;;;;;;90.00;26.57;;;6.40;99.90;;;;;;6161082;23;20761;-78
2021/10/13 03:44:57;;;;;;;26.67;17.13;;;6.40;99.90;;;;;;6160952;23;20426;-77
2021/10/13 03:47:25;;;;;;;97.50;20.73;;;6.40;99.90;;;;;;6161035;23;20424;-77
2021/10/13 03:49:55;;;;;;;101.83;23.30;;;6.40;99.90;;;;;;6187480;23;20419;-77
2021/10/13 03:52:23;;;;;;;23.43;18.30;;;6.40;99.90;;;;;;6160805;23;20749;-77
2021/10/13 03:54:51;;;;;;;134.40;26.07;;;6.40;99.90;;;;;;6197569;23;20496;-76
2021/10/13 03:57:19;;;;;;;61.20;21.63;;;6.40;99.90;;;;;;6196824;23;20396;-76
2021/10/13 03:59:47;;;;;;;58.53;21.17;;;6.40;99.90;;;;;;6160693;23;20514;-77
2021/10/13 04:02:15;;;;;;;129.77;23.90;;;6.40;99.90;;;;;;6187671;23;20439;-76
2021/10/13 04:04:44;;;;;;;152.33;31.80;;;6.40;99.90;;;;;;6160620;23;20419;-77
2021/10/13 04:07:13;;;;;;;164.57;39.33;;;6.40;99.90;;;;;;6160782;23;20477;-77
2021/10/13 04:09:41;;;;;;;118.70;29.57;;;6.40;99.90;;;;;;6197038;23;20419;-76
2021/10/13 04:12:10;;;;;;;218.30;36.67;;;6.30;99.90;;;;;;6160660;23;20502;-77
2021/10/13 04:14:38;;;;;;;298.77;50.27;;;6.40;99.90;;;;;;6160656;23;20458;-77
2021/10/13 04:17:06;;;;;;;130.60;29.13;;;6.30;99.90;;;;;;6160415;23;20451;-75
2021/10/13 04:19:34;;;;;;;193.93;33.23;;;6.30;99.90;;;;;;6186833;23;20775;-77
2021/10/13 04:22:02;;;;;;;210.63;33.27;;;6.30;99.90;;;;;;6160636;23;20411;-77
2021/10/13 04:24:32;;;;;;;37.97;20.20;;;6.30;99.90;;;;;;6196929;23;20396;-77
2021/10/13 04:27:00;;;;;;;104.90;23.23;;;6.30;99.90;;;;;;6160592;23;20412;-77
2021/10/13 04:29:28;;;;;;;161.87;31.10;;;6.20;99.90;;;;;;6160390;23;20478;-77
2021/10/13 04:31:56;;;;;;;102.90;24.90;;;6.20;99.90;;;;;;6160381;23;20419;-77
2021/10/13 04:34:24;;;;;;;196.70;35.43;;;6.20;99.90;;;;;;6187216;23;20412;-77
2021/10/13 04:36:52;;;;;;;115.70;22.30;;;6.20;99.90;;;;;;6160507;23;20815;-76
2021/10/13 04:39:20;;;;;;;185.47;40.70;;;6.20;99.90;;;;;;6160111;23;20451;-76
2021/10/13 04:41:50;;;;;;;140.10;31.97;;;6.20;99.90;;;;;;6160346;23;20404;-77
2021/10/13 04:44:18;;;;;;;127.17;22.63;;;6.10;99.90;;;;;;6160249;23;20473;-76
2021/10/13 04:46:46;;;;;;;81.17;27.17;;;6.10;99.90;;;;;;6196259;23;20726;-77
2021/10/13 04:49:14;;;;;;;132.90;30.30;;;6.10;99.90;;;;;;6186564;23;20432;-77
2021/10/13 04:51:43;;;;;;;102.37;28.40;;;6.10;99.90;;;;;;6160055;23;20499;-77
2021/10/13 04:54:11;;;;;;;169.90;31.13;;;6.00;99.90;;;;;;6160016;23;20518;-76
2021/10/13 04:56:39;;;;;;;136.40;35.97;;;6.00;99.90;;;;;;6160358;23;20498;-77
2021/10/13 04:59:08;;;;;;;147.27;37.17;;;6.00;99.90;;;;;;6160082;23;20443;-76
2021/10/13 05:01:36;;;;;;;206.13;39.73;;;6.00;99.90;;;;;;6196480;23;20406;-76
2021/10/13 05:04:05;;;;;;;90.60;30.17;;;6.00;99.90;;;;;;6160307;23;20510;-77
2021/10/13 05:06:33;;;;;;;227.33;42.93;;;6.00;99.90;;;;;;6160101;23;20422;-77
2021/10/13 05:09:01;;;;;;;114.43;29.87;;;6.00;99.90;;;;;;6186269;23;20432;-75
2021/10/13 05:11:29;;;;;;;98.07;23.30;;;5.90;99.90;;;;;;6186816;23;20418;-77
2021/10/13 05:13:57;;;;;;;151.03;32.40;;;5.90;99.90;;;;;;6186658;23;20503;-76
2021/10/13 05:16:27;;;;;;;123.90;27.83;;;5.90;99.90;;;;;;6160043;23;20418;-77
2021/10/13 05:18:55;;;;;;;105.53;28.47;;;5.90;99.90;;;;;;6160009;23;20447;-77
2021/10/13 05:21:23;;;;;;;190.73;30.10;;;5.90;99.90;;;;;;6159806;23;20435;-77
2021/10/13 05:23:51;;;;;;;113.90;37.40;;;5.90;99.90;;;;;;6196619;23;20398;-77
2021/10/13 05:26:20;;;;;;;174.03;45.10;;;5.90;99.90;;;;;;6197012;23;20438;-77
2021/10/13 05:28:48;;;;;;;120.50;35.83;;;5.90;99.90;;;;;;6159969;23;20526;-77
2021/10/13 05:31:16;;;;;;;130.10;29.27;;;5.80;99.90;;;;;;6186592;23;20419;-77
2021/10/13 05:33:46;;;;;;;168.43;37.07;;;5.90;99.90;;;;;;6196642;23;20400;-77
2021/10/13 05:36:17;;;;;;;179.03;36.90;;;5.80;99.90;;;;;;6160013;23;20415;-77
2021/10/13 05:38:55;;;;;;;33.13;30.77;;;5.80;99.90;;;;;;6159843;23;20470;-76
2021/10/13 05:41:25;;;;;;;130.33;34.90;;;5.80;99.90;;;;;;6186299;23;20514;-77
2021/10/13 05:43:53;;;;;;;29.60;26.23;;;5.80;99.90;;;;;;6186119;23;20413;-77
2021/10/13 05:46:21;;;;;;;192.63;38.27;;;5.80;99.90;;;;;;6196523;23;20399;-77
2021/10/13 05:48:51;;;;;;;174.97;41.23;;;5.80;99.90;;;;;;6186229;23;20435;-77
2021/10/13 05:51:19;;;;;;;94.83;27.73;;;5.80;99.90;;;;;;6159792;23;20498;-77
2021/10/13 05:53:47;;;;;;;127.53;24.27;;;5.70;99.90;;;;;;6159674;23;20447;-76
2021/10/13 05:56:16;;;;;;;176.10;41.33;;;5.70;99.90;;;;;;6159662;23;20426;-77
2021/10/13 05:58:44;;;;;;;107.13;27.17;;;5.70;99.90;;;;;;6159687;23;20439;-77
2021/10/13 06:01:17;;;;;;;184.13;34.40;;;5.70;99.90;;;;;;6185736;23;20515;-76
2021/10/13 06:03:45;;;;;;;131.30;31.70;;;5.70;99.90;;;;;;6159414;23;20885;-77
2021/10/13 06:06:16;;;;;;;11.20;10.10;;;5.70;99.90;;;;;;6195003;23;20411;-76
2021/10/13 06:08:44;;;;;;;74.57;22.30;;;5.80;99.90;;;;;;6159635;23;20250;-76
2021/10/13 06:11:14;;;;;;;9.75;8.85;;;5.90;99.90;;;;;;6160036;23;20784;-76
2021/10/13 06:13:43;;;;;;;200.83;30.77;;;5.90;99.90;;;;;;6196307;23;20165;-76
2021/10/13 06:16:12;;;;;;;143.80;29.27;;;5.90;99.90;;;;;;6159497;23;20412;-76
2021/10/13 06:18:41;;;;;;;132.53;24.93;;;5.90;99.90;;;;;;6159600;23;20461;-77
2021/10/13 06:21:09;;;;;;;99.00;23.80;;;5.90;99.90;;;;;;6185836;23;20519;-76
2021/10/13 06:23:39;;;;;;;117.20;24.07;;;5.90;99.90;;;;;;6160034;23;20408;-76
2021/10/13 06:26:08;;;;;;;103.23;23.97;;;5.90;99.90;;;;;;6196214;23;20412;-76
2021/10/13 06:28:36;;;;;;;153.93;29.87;;;5.80;99.90;;;;;;6159655;23;20444;-76
2021/10/13 06:31:04;;;;;;;175.97;26.30;;;5.80;99.90;;;;;;6159400;23;20447;-76
2021/10/13 06:33:33;;;;;;;169.87;26.73;;;5.90;99.90;;;;;;6159323;23;20416;-76
2021/10/13 06:36:05;;;;;;;248.53;31.13;;;5.90;99.90;;;;;;6159680;23;20431;-76
2021/10/13 06:38:33;;;;;;;119.73;22.30;;;5.90;99.90;;;;;;6159307;23;20431;-77
2021/10/13 06:41:06;;;;;;;202.37;31.80;;;6.00;99.90;;;;;;6159353;23;20447;-76
2021/10/13 06:43:34;;;;;;;101.30;24.43;;;6.00;99.90;;;;;;6159390;23;20403;-76
2021/10/13 06:46:02;;;;;;;179.53;29.83;;;6.00;99.90;;;;;;6159329;23;20415;-76
2021/10/13 06:48:30;;;;;;;152.40;19.73;;;6.10;99.90;;;;;;6159188;23;20477;-77
2021/10/13 06:50:59;;;;;;;152.60;25.13;;;6.20;99.90;;;;;;6159637;23;20975;-76
2021/10/13 06:53:27;;;;;;;75.97;17.63;;;6.30;99.90;;;;;;6159492;23;20974;-76
2021/10/13 06:55:57;;;;;;;52.67;12.80;;;6.30;99.90;;;;;;6198754;23;20474;-76
2021/10/13 06:58:26;;;;;;;154.77;25.13;;;6.40;99.90;;;;;;6199193;23;20415;-76
2021/10/13 07:00:54;;;;;;;68.97;19.73;;;6.50;99.90;;;;;;6198877;23;20986;-76
2021/10/13 07:03:22;;;;;;;106.60;19.23;;;6.50;99.90;;;;;;6162655;23;20447;-76
2021/10/13 07:05:51;;;;;;;121.17;17.83;;;6.50;99.90;;;;;;6162803;23;20510;-76
2021/10/13 07:08:19;;;;;;;141.70;16.83;;;6.60;99.90;;;;;;6198790;23;20416;-76
2021/10/13 07:10:47;;;;;;;151.80;31.47;;;6.70;99.90;;;;;;6162570;23;20420;-76
2021/10/13 07:13:15;;;;;;;220.17;27.10;;;6.70;99.90;;;;;;6162480;23;20422;-76
2021/10/13 07:15:45;;;;;;;110.73;19.60;;;6.80;99.90;;;;;;6162519;23;20415;-76
2021/10/13 07:18:13;;;;;;;143.60;18.90;;;6.90;99.90;;;;;;6162523;23;20778;-76
2021/10/13 07:20:44;;;;;;;102.43;27.87;;;6.90;99.90;;;;;;6199483;23;20415;-77
2021/10/13 07:23:12;;;;;;;10.00;6.90;;;7.00;99.90;;;;;;6188208;23;20417;-77
2021/10/13 07:25:41;;;;;;;270.57;47.43;;;7.10;99.90;;;;;;6199078;23;20160;-76
2021/10/13 07:28:11;;;;;;;38.17;10.73;;;7.20;99.90;;;;;;6188662;23;20411;-76
2021/10/13 07:30:40;;;;;;;121.83;23.67;;;7.30;99.90;;;;;;6188740;23;20176;-76
2021/10/13 07:33:09;;;;;;;125.93;23.70;;;7.30;99.90;;;;;;6162548;23;20423;-77
2021/10/13 07:35:38;;;;;;;182.20;27.57;;;7.30;99.90;;;;;;6162492;23;20454;-76
2021/10/13 07:38:06;;;;;;;121.47;18.90;;;7.40;99.90;;;;;;6198781;23;20420;-77
2021/10/13 07:40:34;;;;;;;109.07;29.27;;;7.40;99.90;;;;;;6162069;23;20415;-77
2021/10/13 07:43:02;;;;;;;78.57;18.37;;;7.50;99.90;;;;;;6162607;23;20430;-76
2021/10/13 07:45:31;;;;;;;53.70;12.50;;;7.50;99.90;;;;;;6198751;23;20409;-77
2021/10/13 07:47:59;;;;;;;181.13;24.20;;;7.60;99.90;;;;;;6162855;23;20449;-77
2021/10/13 07:50:29;;;;;;;127.43;26.33;;;7.60;99.90;;;;;;6163368;23;20894;-76
2021/10/13 07:52:57;;;;;;;152.67;25.37;;;7.70;99.90;;;;;;6189468;23;20491;-76
2021/10/13 07:55:25;;;;;;;164.23;24.43;;;7.80;99.90;;;;;;6162856;23;20416;-75
2021/10/13 07:57:54;;;;;;;124.03;20.73;;;7.90;99.90;;;;;;6162709;23;20446;-76
2021/10/13 08:00:23;;;;;;;170.17;32.60;;;8.00;99.90;;;;;;6199668;23;20404;-76
2021/10/13 08:02:51;;;;;;;172.07;39.50;;;8.10;99.90;;;;;;6189175;23;20514;-76
2021/10/13 08:05:20;;;;;;;89.00;21.50;;;8.20;99.90;;;;;;6162783;23;20415;-76
2021/10/13 08:07:49;;;;;;;137.27;19.60;;;8.40;99.90;;;;;;6160938;23;20989;-76
2021/10/13 08:10:17;;;;;;;181.90;41.13;;;8.40;99.90;;;;;;6161191;23;20966;-75
2021/10/13 08:12:45;;;;;;;122.03;21.43;;;8.50;99.90;;;;;;6160730;23;20414;-76
2021/10/13 08:15:16;;;;;;;119.30;24.47;;;8.50;99.90;;;;;;6160821;23;20411;-75
2021/10/13 08:17:44;;;;;;;140.60;29.23;;;8.60;99.90;;;;;;6160493;23;20439;-76
2021/10/13 08:20:13;;;;;;;147.13;29.63;;;8.60;99.90;;;;;;6160682;23;20415;-76
2021/10/13 08:22:42;;;;;;;124.17;21.87;;;8.70;99.90;;;;;;6160482;23;20500;-76
2021/10/13 08:25:12;;;;;;;62.37;19.60;;;8.80;99.90;;;;;;6196990;23;20400;-76
2021/10/13 08:27:40;;;;;;;109.37;28.63;;;8.80;99.90;;;;;;6196765;23;20486;-77
2021/10/13 08:30:09;;;;;;;88.53;31.60;;;8.90;99.90;;;;;;6197192;23;20434;-76
2021/10/13 08:32:37;;;;;;;119.00;25.87;;;9.00;99.90;;;;;;6160543;23;20502;-77
2021/10/13 08:35:07;;;;;;;8.13;5.00;;;9.00;99.90;;;;;;6196175;23;20399;-77
2021/10/13 08:37:36;;;;;;;112.07;31.70;;;9.10;99.90;;;;;;6161437;23;20203;-76
2021/10/13 08:40:05;;;;;;;194.83;39.20;;;9.20;99.90;;;;;;6160178;23;20419;-77
2021/10/13 08:42:34;;;;;;;145.70;29.67;;;9.20;99.90;;;;;;6196636;23;20447;-77
2021/10/13 08:45:03;;;;;;;152.43;32.07;;;9.20;99.90;;;;;;6160441;23;20482;-77
2021/10/13 08:47:31;;;;;;;111.70;30.07;;;9.20;99.90;;;;;;6187057;23;20411;-77
2021/10/13 08:49:59;;;;;;;152.50;35.10;;;9.30;99.90;;;;;;6160228;23;20443;-77
2021/10/13 08:52:31;;;;;;;128.53;27.93;;;9.30;99.90;;;;;;6160210;23;20454;-77
2021/10/13 08:54:59;;;;;;;117.90;33.47;;;9.40;99.90;;;;;;6197014;23;20377;-77
2021/10/13 08:57:30;;;;;;;111.73;28.97;;;9.40;99.90;;;;;;6160267;23;20451;-77
2021/10/13 08:59:59;;;;;;;124.10;28.87;;;9.50;99.90;;;;;;6160129;23;20538;-77
2021/10/13 09:02:40;;;;;;;83.90;31.03;;;9.50;99.90;;;;;;6196465;23;20490;-77
2021/10/13 09:05:11;;;;;;;74.03;28.47;;;9.60;99.90;;;;;;6160285;23;20609;-76
2021/10/13 09:07:47;;;;;;;100.70;31.97;;;9.60;99.90;;;;;;6186458;23;20479;-77
2021/10/13 09:10:15;;;;;;;150.70;31.80;;;9.70;99.90;;;;;;6160099;23;20893;-76
2021/10/13 09:12:46;;;;;;;161.93;39.50;;;9.70;99.90;;;;;;6160465;23;20412;-78
2021/10/13 09:15:25;;;;;;;146.63;37.93;;;9.80;99.90;;;;;;6196836;23;20383;-77
2021/10/13 09:17:55;;;;;;;124.53;31.87;;;9.80;99.90;;;;;;6186129;23;20863;-77
2021/10/13 09:20:25;;;;;;;199.13;47.20;;;9.90;99.90;;;;;;6159686;23;20439;-77
2021/10/13 09:22:58;;;;;;;131.90;37.60;;;10.00;99.90;;;;;;6186218;23;20442;-76
2021/10/13 09:25:27;;;;;;;162.53;49.50;;;10.00;99.90;;;;;;6161432;23;20414;-76
2021/10/13 09:27:55;;;;;;;159.43;49.70;;;10.00;99.90;;;;;;6196257;23;20931;-77
2021/10/13 09:30:30;;;;;;;197.10;50.70;;;10.10;99.90;;;;;;6160356;23;20466;-77
2021/10/13 09:33:10;;;;;;;216.53;37.40;;;10.10;99.90;;;;;;6186681;23;20396;-77
2021/10/13 09:35:44;;;;;;;190.07;38.47;;;10.20;99.90;;;;;;6186644;23;20404;-77
2021/10/13 09:38:17;;;;;;;152.63;39.50;;;10.30;99.90;;;;;;6159851;23;20950;-76
2021/10/13 09:40:47;;;;;;;240.43;61.37;;;10.30;99.90;;;;;;6159676;23;20419;-77
2021/10/13 09:43:29;;;;;;;161.03;39.47;;;10.40;99.90;;;;;;6196146;23;20455;-77
2021/10/13 09:46:05;;;;;;;143.00;27.03;;;10.40;99.90;;;;;;6196168;23;20391;-77
2021/10/13 09:48:35;;;;;;;372.97;74.00;;;10.40;99.90;;;;;;6196238;23;20518;-77
2021/10/13 09:51:19;;;;;;;254.17;40.10;;;10.50;99.90;;;;;;6159753;23;20411;-77
2021/10/13 09:53:49;;;;;;;238.57;58.10;;;10.50;99.90;;;;;;6159716;23;20499;-77
2021/10/13 09:56:31;;;;;;;229.47;56.43;;;10.50;99.90;;;;;;6196202;23;20487;-77
2021/10/13 09:59:17;;;;;;;250.23;50.70;;;10.60;99.90;;;;;;6159700;23;20443;-77
2021/10/13 10:01:49;;;;;;;288.90;62.07;;;10.60;99.90;;;;;;6159781;23;20415;-77
2021/10/13 10:04:21;;;;;;;177.87;41.57;;;10.70;99.90;;;;;;6159819;23;20404;-77
2021/10/13 10:06:59;;;;;;;323.73;72.13;;;10.70;99.90;;;;;;6196072;23;20388;-77
2021/10/13 10:09:27;;;;;;;306.93;63.67;;;10.70;99.90;;;;;;6195969;23;20511;-77
2021/10/13 10:12:07;;;;;;;288.43;66.83;;;10.80;99.90;;;;;;6186147;23;20427;-77
2021/10/13 10:14:48;;;;;;;340.20;74.17;;;10.80;99.90;;;;;;6160499;23;20498;-77
2021/10/13 10:17:40;;;;;;;250.93;59.20;;;10.80;99.90;;;;;;6159563;23;20454;-77
2021/10/13 10:20:09;;;;;;;202.60;46.30;;;10.80;99.90;;;;;;6186373;23;20458;-77
2021/10/13 10:22:47;;;;;;;273.93;83.73;;;10.80;99.90;;;;;;6185688;23;20922;-77
2021/10/13 10:25:15;;;;;;;283.07;49.93;;;10.80;99.90;;;;;;6159549;23;20434;-77
2021/10/13 10:27:44;;;;;;;285.63;63.43;;;10.80;99.90;;;;;;6159289;23;20476;-77
2021/10/13 10:30:20;;;;;;;230.40;51.70;;;10.90;99.90;;;;;;6185920;23;20404;-76
2021/10/13 10:33:17;;;;;;;283.20;67.07;;;10.90;99.90;;;;;;6159577;23;20435;-77
2021/10/13 10:35:46;;;;;;;250.47;46.73;;;11.00;99.90;;;;;;6159473;23;20424;-77
2021/10/13 10:38:18;;;;;;;271.80;61.93;;;11.10;99.90;;;;;;6160165;23;20832;-76
2021/10/13 10:40:47;;;;;;;6.90;4.30;;;11.10;99.90;;;;;;6157692;23;20425;-77
2021/10/13 10:43:24;;;;;;;217.73;56.07;;;11.20;99.90;;;;;;6159347;23;20535;-77
2021/10/13 10:45:55;;;;;;;6.67;4.10;;;11.20;99.90;;;;;;6158286;23;20791;-77
2021/10/13 10:48:26;;;;;;;161.43;45.17;;;11.30;99.90;;;;;;6159199;23;20435;-77
2021/10/13 10:51:03;;;;;;;159.93;50.70;;;11.30;99.90;;;;;;6159427;23;20784;-77
2021/10/13 10:53:40;;;;;;;255.33;62.43;;;11.40;99.90;;;;;;6195975;23;20469;-77
2021/10/13 10:56:27;;;;;;;237.50;55.43;;;11.40;99.90;;;;;;6159218;23;20403;-77
2021/10/13 10:59:01;;;;;;;226.37;56.83;;;11.50;99.90;;;;;;6159230;23;20786;-76
2021/10/13 11:01:29;;;;;;;346.87;89.20;;;11.50;99.90;;;;;;6160158;23;20416;-77
2021/10/13 11:04:05;;;;;;;287.30;69.37;;;11.60;99.90;;;;;;6195344;23;20439;-77
2021/10/13 11:06:36;;;;;;;210.80;57.70;;;11.70;99.90;;;;;;6159142;23;20749;-77
2021/10/13 11:09:08;;;;;;;233.90;62.50;;;11.70;99.90;;;;;;6185888;23;20427;-77
2021/10/13 11:11:39;;;;;;;275.67;71.67;;;11.80;99.90;;;;;;6159241;23;20462;-77
2021/10/13 11:14:10;;;;;;;338.40;82.60;;;11.80;99.90;;;;;;6186331;23;20399;-77
2021/10/13 11:16:40;;;;;;;262.20;78.87;;;11.80;99.90;;;;;;6159603;23;20430;-77
2021/10/13 11:19:16;;;;;;;323.53;82.30;;;11.80;99.90;;;;;;6185743;23;20522;-77
2021/10/13 11:21:45;;;;;;;400.67;92.43;;;11.80;99.90;;;;;;6185848;23;20395;-77
2021/10/13 11:24:17;;;;;;;342.40;89.03;;;11.90;99.90;;;;;;6158998;23;20432;-77
2021/10/13 11:26:46;;;;;;;342.10;69.90;;;11.80;99.90;;;;;;6185473;23;20955;-77
2021/10/13 11:29:19;;;;;;;314.63;71.67;;;11.80;99.90;;;;;;6159077;23;20443;-77
2021/10/13 11:31:48;;;;;;;246.23;60.03;;;11.80;99.90;;;;;;6160196;23;20410;-77
2021/10/13 11:34:19;;;;;;;275.13;66.43;;;11.80;99.90;;;;;;6159419;23;20951;-77
2021/10/13 11:36:53;;;;;;;334.00;88.60;;;11.80;99.90;;;;;;6185580;23;20400;-77
2021/10/13 11:39:23;;;;;;;436.37;85.17;;;11.70;99.90;;;;;;6158853;23;20447;-77
2021/10/13 11:41:52;;;;;;;3.30;1.65;;;11.70;99.90;;;;;;6195151;23;20438;-77
2021/10/13 11:44:23;;;;;;;255.87;57.77;;;11.70;99.90;;;;;;6160860;23;20197;-77
2021/10/13 11:47:04;;;;;;;277.17;60.70;;;11.70;99.90;;;;;;6187309;23;20435;-77
2021/10/13 11:49:52;;;;;;;231.40;60.40;;;11.70;99.90;;;;;;6187059;23;20429;-77
2021/10/13 11:52:20;;;;;;;190.47;54.63;;;11.70;99.90;;;;;;6197695;23;20391;-77
2021/10/13 11:54:56;;;;;;;254.27;51.03;;;11.70;99.90;;;;;;6161157;23;20426;-77
2021/10/13 11:57:25;;;;;;;278.03;65.53;;;11.70;99.90;;;;;;6160898;23;20825;-77
2021/10/13 12:00:13;;;;;;;287.07;49.93;;;11.80;99.90;;;;;;6187661;23;20458;-76
2021/10/13 12:02:42;;;;;;;247.07;52.73;;;11.80;99.90;;;;;;6160995;23;20396;-76
2021/10/13 12:05:11;;;;;;;336.23;74.60;;;11.80;99.90;;;;;;6160790;23;20447;-77
2021/10/13 12:07:44;;;;;;;324.83;85.47;;;11.90;99.90;;;;;;6160554;23;20420;-76
2021/10/13 12:10:14;;;;;;;338.50;71.37;;;11.90;99.90;;;;;;6160730;23;20418;-76
2021/10/13 12:13:02;;;;;;;297.40;81.10;;;12.00;99.90;;;;;;6160537;23;20906;-77
2021/10/13 12:15:31;;;;;;;375.93;90.63;;;12.10;99.90;;;;;;6160963;23;20415;-76
2021/10/13 12:18:09;;;;;;;305.40;71.97;;;12.10;99.90;;;;;;6160571;23;20438;-77
2021/10/13 12:20:39;;;;;;;302.57;90.23;;;12.20;99.90;;;;;;6196984;23;20460;-76
2021/10/13 12:23:12;;;;;;;362.57;88.00;;;12.30;99.90;;;;;;6160363;23;20526;-76
2021/10/13 12:25:41;;;;;;;188.47;70.20;;;12.30;99.90;;;;;;6187285;23;20392;-77
2021/10/13 12:28:19;;;;;;;127.13;28.20;;;12.40;99.90;;;;;;6196234;23;20407;-77
2021/10/13 12:30:56;;;;;;;227.23;80.03;;;12.40;99.90;;;;;;6196887;23;20368;-77
2021/10/13 12:33:25;;;;;;;19.37;14.53;;;12.40;99.90;;;;;;6186702;23;20423;-77
2021/10/13 12:36:09;;;;;;;30.03;24.80;;;12.40;99.90;;;;;;6196780;23;20490;-77
2021/10/13 12:38:43;;;;;;;29.43;26.73;;;12.40;99.90;;;;;;6160355;23;21041;-76
2021/10/13 12:41:11;;;;;;;18.97;17.17;;;12.40;99.90;;;;;;6160395;23;20434;-76
2021/10/13 12:43:42;;;;;;;98.93;35.20;;;12.40;99.90;;;;;;6160210;23;20435;-77
2021/10/13 12:46:29;;;;;;;94.13;48.27;;;12.40;99.90;;;;;;6160698;23;20746;-77